createdAt,value
2022-12-15T00:00:51.862Z,999.75
2022-12-15T00:01:51.822Z,999.75
2022-12-15T00:02:51.918Z,999.80
2022-12-15T00:03:51.836Z,999.74
2022-12-15T00:04:51.758Z,999.78
2022-12-15T00:05:51.747Z,999.74
2022-12-15T00:06:51.777Z,999.79
2022-12-15T00:07:51.734Z,999.78
2022-12-15T00:08:51.719Z,999.83
2022-12-15T00:09:51.709Z,999.77
2022-12-15T00:10:51.711Z,999.81
2022-12-15T00:11:51.690Z,999.81
2022-12-15T00:12:51.674Z,999.85
2022-12-15T00:13:51.666Z,999.83
2022-12-15T00:14:51.661Z,999.84
2022-12-15T00:15:51.774Z,999.84
2022-12-15T00:16:51.632Z,999.87
2022-12-15T00:17:51.653Z,999.90
2022-12-15T00:18:51.616Z,999.91
2022-12-15T00:19:51.606Z,999.96
2022-12-15T00:20:51.590Z,999.97
2022-12-15T00:21:51.591Z,999.99
2022-12-15T00:22:51.571Z,999.93
2022-12-15T00:23:51.571Z,999.96
2022-12-15T00:24:51.552Z,999.96
2022-12-15T00:25:51.542Z,999.89
2022-12-15T00:26:51.527Z,999.87
2022-12-15T00:27:51.525Z,999.92
2022-12-15T00:28:51.505Z,999.90
2022-12-15T00:29:51.501Z,999.94
2022-12-15T00:30:51.509Z,999.98
2022-12-15T00:31:51.546Z,999.99
2022-12-15T00:32:51.466Z,999.99
2022-12-15T00:33:51.490Z,1000.07
2022-12-15T00:34:51.446Z,1000.04
2022-12-15T00:35:51.436Z,1000.03
2022-12-15T00:36:51.420Z,1000.06
2022-12-15T00:37:51.415Z,1000.03
2022-12-15T00:38:51.409Z,1000.02
2022-12-15T00:39:51.396Z,1000.01
2022-12-15T00:41:51.374Z,999.96
2022-12-15T00:42:51.364Z,1000.02
2022-12-15T00:43:51.351Z,1000.02
2022-12-15T00:44:51.347Z,1000.02
2022-12-15T00:45:51.354Z,1000.03
2022-12-15T00:46:51.447Z,1000.03
2022-12-15T00:47:51.306Z,1000.03
2022-12-15T00:48:51.299Z,1000.09
2022-12-15T00:49:51.316Z,1000.07
2022-12-15T00:50:51.277Z,1000.13
2022-12-15T00:51:51.263Z,1000.13
2022-12-15T00:52:51.256Z,1000.11
2022-12-15T00:53:51.243Z,1000.08
2022-12-15T00:54:51.232Z,1000.11
2022-12-15T00:55:51.216Z,1000.07
2022-12-15T00:56:51.213Z,1000.07
2022-12-15T00:57:51.197Z,1000.08
2022-12-15T00:58:51.198Z,1000.08
2022-12-15T00:59:51.182Z,1000.14
2022-12-15T01:00:51.171Z,1000.15
2022-12-15T01:01:51.297Z,1000.15
2022-12-15T01:02:51.461Z,1000.17
2022-12-15T01:03:51.223Z,1000.16
2022-12-15T01:04:51.132Z,1000.15
2022-12-15T01:05:51.136Z,1000.18
2022-12-15T01:06:51.108Z,1000.15
2022-12-15T01:07:51.092Z,1000.17
2022-12-15T01:08:51.082Z,1000.22
2022-12-15T01:09:51.071Z,1000.19
2022-12-15T01:10:51.063Z,1000.18
2022-12-15T01:11:51.048Z,1000.19
2022-12-15T01:12:51.046Z,1000.22
2022-12-15T01:13:51.030Z,1000.22
2022-12-15T01:14:51.057Z,1000.20
2022-12-15T01:15:51.041Z,1000.21
2022-12-15T01:16:51.004Z,1000.21
2022-12-15T01:17:50.985Z,1000.20
2022-12-15T01:18:50.975Z,1000.19
2022-12-15T01:19:50.962Z,1000.23
2022-12-15T01:20:50.958Z,1000.21
2022-12-15T01:21:50.980Z,1000.24
2022-12-15T01:22:50.941Z,1000.25
2022-12-15T01:23:50.954Z,1000.22
2022-12-15T01:24:50.921Z,1000.22
2022-12-15T01:25:50.897Z,1000.20
2022-12-15T01:26:50.892Z,1000.21
2022-12-15T01:27:50.880Z,1000.22
2022-12-15T01:28:50.867Z,1000.21
2022-12-15T01:29:50.859Z,1000.18
2022-12-15T01:30:50.868Z,1000.19
2022-12-15T01:31:50.908Z,1000.21
2022-12-15T01:32:50.823Z,1000.20
2022-12-15T01:33:50.814Z,1000.21
2022-12-15T01:34:50.804Z,1000.22
2022-12-15T01:35:50.789Z,1000.20
2022-12-15T01:36:50.788Z,1000.23
2022-12-15T01:37:50.796Z,1000.20
2022-12-15T01:38:54.095Z,1000.18
2022-12-15T01:39:50.747Z,1000.18
2022-12-15T01:40:50.741Z,1000.18
2022-12-15T01:41:50.726Z,1000.15
2022-12-15T01:42:50.719Z,1000.19
2022-12-15T01:43:50.704Z,1000.18
2022-12-15T01:44:50.701Z,1000.17
2022-12-15T01:45:50.679Z,1000.12
2022-12-15T01:46:50.741Z,1000.09
2022-12-15T01:47:50.663Z,1000.12
2022-12-15T01:48:50.654Z,1000.06
2022-12-15T01:49:50.641Z,1000.04
2022-12-15T01:50:50.632Z,1000.03
2022-12-15T01:51:50.615Z,1000.01
2022-12-15T01:52:50.614Z,1000.05
2022-12-15T01:53:50.619Z,1000.01
2022-12-15T01:54:50.587Z,1000.02
2022-12-15T01:55:50.574Z,1000.05
2022-12-15T01:56:50.572Z,999.99
2022-12-15T01:57:50.556Z,1000.02
2022-12-15T01:58:50.552Z,1000.01
2022-12-15T01:59:50.537Z,1000.04
2022-12-15T02:00:50.556Z,1000.03
2022-12-15T02:01:50.659Z,1000.09
2022-12-15T02:02:50.600Z,1000.11
2022-12-15T02:03:50.489Z,1000.12
2022-12-15T02:04:50.485Z,1000.13
2022-12-15T02:05:50.467Z,1000.17
2022-12-15T02:06:50.461Z,1000.17
2022-12-15T02:07:50.457Z,1000.19
2022-12-15T02:08:50.433Z,1000.15
2022-12-15T02:09:50.453Z,1000.15
2022-12-15T02:10:50.411Z,1000.13
2022-12-15T02:11:50.410Z,1000.20
2022-12-15T02:12:50.396Z,1000.19
2022-12-15T02:13:50.384Z,1000.24
2022-12-15T02:14:50.370Z,1000.25
2022-12-15T02:15:50.396Z,1000.26
2022-12-15T02:16:50.403Z,1000.27
2022-12-15T02:17:50.343Z,1000.28
2022-12-15T02:18:50.324Z,1000.29
2022-12-15T02:19:50.327Z,1000.28
2022-12-15T02:20:50.312Z,1000.30
2022-12-15T02:21:50.299Z,1000.26
2022-12-15T02:22:50.279Z,1000.28
2022-12-15T02:23:50.277Z,1000.32
2022-12-15T02:24:50.261Z,1000.26
2022-12-15T02:25:50.877Z,1000.31
2022-12-15T02:26:50.240Z,1000.31
2022-12-15T02:27:50.236Z,1000.28
2022-12-15T02:28:50.220Z,1000.27
2022-12-15T02:29:50.211Z,1000.28
2022-12-15T02:30:50.194Z,1000.26
2022-12-15T02:31:50.586Z,1000.35
2022-12-15T02:32:50.177Z,1000.34
2022-12-15T02:33:50.170Z,1000.40
2022-12-15T02:34:50.150Z,1000.40
2022-12-15T02:35:50.143Z,1000.41
2022-12-15T02:36:50.133Z,1000.39
2022-12-15T02:37:50.243Z,1000.44
2022-12-15T02:38:50.111Z,1000.40
2022-12-15T02:39:50.104Z,1000.40
2022-12-15T02:40:50.087Z,1000.44
2022-12-15T02:41:50.106Z,1000.48
2022-12-15T02:42:50.069Z,1000.44
2022-12-15T02:43:50.053Z,1000.46
2022-12-15T02:44:50.046Z,1000.50
2022-12-15T02:45:50.093Z,1000.51
2022-12-15T02:46:50.024Z,1000.53
2022-12-15T02:47:50.015Z,1000.55
2022-12-15T02:48:50.000Z,1000.58
2022-12-15T02:49:50.090Z,1000.57
2022-12-15T02:50:49.979Z,1000.60
2022-12-15T02:51:49.971Z,1000.70
2022-12-15T02:52:49.960Z,1000.70
2022-12-15T02:53:49.946Z,1000.77
2022-12-15T02:54:49.936Z,1000.74
2022-12-15T02:55:50.335Z,1000.80
2022-12-15T02:56:49.916Z,1000.80
2022-12-15T02:57:49.928Z,1000.78
2022-12-15T02:58:50.654Z,1000.80
2022-12-15T02:59:49.881Z,1000.86
2022-12-15T03:00:49.912Z,1000.83
2022-12-15T03:01:50.224Z,1000.87
2022-12-15T03:02:49.998Z,1000.89
2022-12-15T03:03:49.839Z,1000.89
2022-12-15T03:04:49.831Z,1000.95
2022-12-15T03:05:49.819Z,1000.93
2022-12-15T03:06:49.802Z,1000.95
2022-12-15T03:07:49.909Z,1000.95
2022-12-15T03:08:49.782Z,1000.97
2022-12-15T03:09:49.777Z,1000.96
2022-12-15T03:10:49.763Z,1000.96
2022-12-15T03:11:49.760Z,1000.95
2022-12-15T03:12:49.740Z,1000.96
2022-12-15T03:13:49.973Z,1001.00
2022-12-15T03:14:49.721Z,1001.01
2022-12-15T03:15:49.711Z,1001.05
2022-12-15T03:16:49.771Z,1001.08
2022-12-15T03:17:49.690Z,1001.07
2022-12-15T03:18:49.676Z,1001.10
2022-12-15T03:19:49.966Z,1001.11
2022-12-15T03:20:49.674Z,1001.07
2022-12-15T03:21:49.647Z,1001.09
2022-12-15T03:22:49.635Z,1001.13
2022-12-15T03:23:49.622Z,1001.10
2022-12-15T03:24:49.611Z,1001.12
2022-12-15T03:25:50.011Z,1001.12
2022-12-15T03:26:49.591Z,1001.14
2022-12-15T03:27:49.584Z,1001.16
2022-12-15T03:28:49.573Z,1001.13
2022-12-15T03:29:49.583Z,1001.13
2022-12-15T03:30:50.457Z,1001.17
2022-12-15T03:31:49.706Z,1001.21
2022-12-15T03:32:49.525Z,1001.19
2022-12-15T03:33:49.515Z,1001.18
2022-12-15T03:34:49.505Z,1001.15
2022-12-15T03:35:49.502Z,1001.15
2022-12-15T03:36:49.486Z,1001.12
2022-12-15T03:37:49.685Z,1001.11
2022-12-15T03:38:49.459Z,1001.14
2022-12-15T03:39:49.456Z,1001.08
2022-12-15T03:40:49.448Z,1001.08
2022-12-15T03:41:49.433Z,1001.08
2022-12-15T03:42:49.421Z,1001.05
2022-12-15T03:43:50.151Z,1001.05
2022-12-15T03:44:49.401Z,1001.03
2022-12-15T03:45:49.455Z,1001.04
2022-12-15T03:46:49.378Z,1001.04
2022-12-15T03:47:49.366Z,1001.03
2022-12-15T03:48:49.361Z,1001.01
2022-12-15T03:49:49.347Z,1000.96
2022-12-15T03:50:49.332Z,1000.95
2022-12-15T03:51:49.329Z,1000.95
2022-12-15T03:52:49.313Z,1000.98
2022-12-15T03:53:49.329Z,1001.00
2022-12-15T03:54:49.289Z,1001.06
2022-12-15T03:55:49.283Z,1001.08
2022-12-15T03:56:49.272Z,1001.04
2022-12-15T03:57:49.263Z,1001.06
2022-12-15T03:58:49.247Z,1001.12
2022-12-15T03:59:49.241Z,1001.11
2022-12-15T04:00:49.228Z,1001.12
2022-12-15T04:01:49.605Z,1001.13
2022-12-15T04:02:50.539Z,1001.14
2022-12-15T04:03:49.303Z,1001.10
2022-12-15T04:04:49.183Z,1001.15
2022-12-15T04:05:49.174Z,1001.14
2022-12-15T04:06:49.169Z,1001.16
2022-12-15T04:07:49.155Z,1001.17
2022-12-15T04:08:49.770Z,1001.19
2022-12-15T04:09:49.134Z,1001.20
2022-12-15T04:10:49.119Z,1001.20
2022-12-15T04:11:49.117Z,1001.19
2022-12-15T04:12:49.100Z,1001.20
2022-12-15T04:13:49.106Z,1001.25
2022-12-15T04:14:49.547Z,1001.24
2022-12-15T04:15:49.067Z,1001.27
2022-12-15T04:16:49.093Z,1001.23
2022-12-15T04:17:49.078Z,1001.31
2022-12-15T04:18:49.037Z,1001.32
2022-12-15T04:19:49.031Z,1001.35
2022-12-15T04:20:50.205Z,1001.32
2022-12-15T04:21:49.014Z,1001.43
2022-12-15T04:22:49.009Z,1001.43
2022-12-15T04:23:48.985Z,1001.44
2022-12-15T04:24:48.975Z,1001.43
2022-12-15T04:25:48.963Z,1001.45
2022-12-15T04:26:48.950Z,1001.52
2022-12-15T04:27:48.948Z,1001.48
2022-12-15T04:28:48.933Z,1001.50
2022-12-15T04:29:48.927Z,1001.52
2022-12-15T04:30:48.986Z,1001.53
2022-12-15T04:31:48.906Z,1001.55
2022-12-15T04:32:49.737Z,1001.56
2022-12-15T04:33:48.911Z,1001.61
2022-12-15T04:34:48.867Z,1001.65
2022-12-15T04:35:49.845Z,1001.60
2022-12-15T04:36:48.848Z,1001.65
2022-12-15T04:37:48.839Z,1001.59
2022-12-15T04:38:48.827Z,1001.65
2022-12-15T04:39:48.820Z,1001.61
2022-12-15T04:40:48.807Z,1001.61
2022-12-15T04:41:48.799Z,1001.65
2022-12-15T04:42:48.788Z,1001.67
2022-12-15T04:43:48.779Z,1001.63
2022-12-15T04:44:50.339Z,1001.70
2022-12-15T04:45:48.787Z,1001.72
2022-12-15T04:46:48.753Z,1001.71
2022-12-15T04:47:48.889Z,1001.70
2022-12-15T04:48:48.726Z,1001.73
2022-12-15T04:49:48.742Z,1001.73
2022-12-15T04:50:48.702Z,1001.72
2022-12-15T04:51:48.703Z,1001.75
2022-12-15T04:52:48.686Z,1001.71
2022-12-15T04:53:48.678Z,1001.77
2022-12-15T04:54:48.663Z,1001.75
2022-12-15T04:55:48.655Z,1001.78
2022-12-15T04:56:50.012Z,1001.73
2022-12-15T04:57:48.635Z,1001.73
2022-12-15T04:58:48.620Z,1001.66
2022-12-15T04:59:48.632Z,1001.65
2022-12-15T05:00:48.602Z,1001.71
2022-12-15T05:01:48.756Z,1001.69
2022-12-15T05:02:49.885Z,1001.69
2022-12-15T05:03:48.581Z,1001.68
2022-12-15T05:04:48.704Z,1001.74
2022-12-15T05:05:48.583Z,1001.82
2022-12-15T05:06:48.541Z,1001.79
2022-12-15T05:07:48.546Z,1001.80
2022-12-15T05:08:50.033Z,1001.80
2022-12-15T05:09:48.513Z,1001.82
2022-12-15T05:10:48.503Z,1001.85
2022-12-15T05:11:48.497Z,1001.84
2022-12-15T05:12:48.483Z,1001.87
2022-12-15T05:13:48.476Z,1001.90
2022-12-15T05:14:49.628Z,1001.93
2022-12-15T05:15:48.503Z,1001.93
2022-12-15T05:16:48.460Z,1002.01
2022-12-15T05:17:48.435Z,1002.07
2022-12-15T05:18:48.424Z,1002.11
2022-12-15T05:19:48.419Z,1002.11
2022-12-15T05:20:49.806Z,1002.13
2022-12-15T05:21:48.426Z,1002.15
2022-12-15T05:22:48.383Z,1002.18
2022-12-15T05:23:48.375Z,1002.26
2022-12-15T05:24:48.369Z,1002.23
2022-12-15T05:25:48.355Z,1002.18
2022-12-15T05:26:52.547Z,1002.19
2022-12-15T05:27:48.336Z,1002.21
2022-12-15T05:28:48.322Z,1002.23
2022-12-15T05:29:48.318Z,1002.24
2022-12-15T05:30:48.370Z,1002.24
2022-12-15T05:31:48.297Z,1002.22
2022-12-15T05:32:48.284Z,1002.20
2022-12-15T05:33:48.274Z,1002.21
2022-12-15T05:35:48.259Z,1002.22
2022-12-15T05:36:48.246Z,1002.20
2022-12-15T05:37:48.255Z,1002.22
2022-12-15T05:38:48.234Z,1002.15
2022-12-15T05:39:48.217Z,1002.10
2022-12-15T05:40:48.213Z,1002.06
2022-12-15T05:41:48.190Z,1002.13
2022-12-15T05:42:50.157Z,1002.14
2022-12-15T05:43:48.174Z,1002.13
2022-12-15T05:44:48.169Z,1002.16
2022-12-15T05:45:48.154Z,1002.14
2022-12-15T05:46:48.278Z,1002.13
2022-12-15T05:47:48.140Z,1002.19
2022-12-15T05:48:48.128Z,1002.22
2022-12-15T05:49:48.114Z,1002.25
2022-12-15T05:50:48.108Z,1002.23
2022-12-15T05:51:48.095Z,1002.29
2022-12-15T05:52:49.658Z,1002.36
2022-12-15T05:53:48.099Z,1002.40
2022-12-15T05:54:48.069Z,1002.45
2022-12-15T05:55:48.054Z,1002.39
2022-12-15T05:56:50.052Z,1002.38
2022-12-15T05:57:48.039Z,1002.36
2022-12-15T05:58:48.028Z,1002.43
2022-12-15T05:59:48.023Z,1002.39
2022-12-15T06:00:48.009Z,1002.44
2022-12-15T06:01:48.106Z,1002.46
2022-12-15T06:02:48.034Z,1002.50
2022-12-15T06:03:47.976Z,1002.55
2022-12-15T06:04:48.110Z,1002.58
2022-12-15T06:05:53.077Z,1002.56
2022-12-15T06:06:47.955Z,1002.62
2022-12-15T06:07:47.946Z,1002.62
2022-12-15T06:08:50.173Z,1002.64
2022-12-15T06:09:47.943Z,1002.63
2022-12-15T06:10:47.913Z,1002.62
2022-12-15T06:11:47.898Z,1002.59
2022-12-15T06:12:47.892Z,1002.63
2022-12-15T06:13:47.882Z,1002.60
2022-12-15T06:14:47.869Z,1002.60
2022-12-15T06:15:47.876Z,1002.64
2022-12-15T06:16:51.168Z,1002.70
2022-12-15T06:17:49.768Z,1002.71
2022-12-15T06:18:50.067Z,1002.74
2022-12-15T06:19:47.825Z,1002.74
2022-12-15T06:20:49.697Z,1002.80
2022-12-15T06:21:47.802Z,1002.91
2022-12-15T06:22:50.207Z,1002.88
2022-12-15T06:23:47.783Z,1002.90
2022-12-15T06:24:47.774Z,1002.89
2022-12-15T06:25:47.789Z,1002.87
2022-12-15T06:26:49.626Z,1002.89
2022-12-15T06:27:47.744Z,1002.89
2022-12-15T06:28:47.736Z,1002.92
2022-12-15T06:29:47.725Z,1002.92
2022-12-15T06:30:47.710Z,1002.90
2022-12-15T06:31:47.868Z,1002.92
2022-12-15T06:32:49.994Z,1002.93
2022-12-15T06:33:47.689Z,1002.93
2022-12-15T06:34:47.678Z,1002.89
2022-12-15T06:35:47.666Z,1002.85
2022-12-15T06:36:47.660Z,1002.81
2022-12-15T06:37:47.652Z,1002.76
2022-12-15T06:38:49.907Z,1002.70
2022-12-15T06:39:47.636Z,1002.67
2022-12-15T06:40:47.620Z,1002.77
2022-12-15T06:41:47.636Z,1002.82
2022-12-15T06:42:47.595Z,1002.99
2022-12-15T06:43:47.588Z,1002.88
2022-12-15T06:44:47.581Z,1002.80
2022-12-15T06:45:47.569Z,1002.84
2022-12-15T06:46:47.559Z,1002.86
2022-12-15T06:47:47.551Z,1002.82
2022-12-15T06:48:47.546Z,1002.90
2022-12-15T06:49:47.526Z,1002.86
2022-12-15T06:50:47.516Z,1002.89
2022-12-15T06:51:47.510Z,1002.90
2022-12-15T06:52:47.500Z,1002.90
2022-12-15T06:53:47.492Z,1002.95
2022-12-15T06:54:47.477Z,1002.94
2022-12-15T06:55:47.473Z,1002.97
2022-12-15T06:56:50.034Z,1002.97
2022-12-15T06:57:47.474Z,1002.95
2022-12-15T06:58:47.436Z,1003.00
2022-12-15T06:59:47.434Z,1003.02
2022-12-15T07:00:47.420Z,1002.98
2022-12-15T07:01:47.613Z,1003.00
2022-12-15T07:05:30.676Z,1003.06
2022-12-15T07:06:30.673Z,1003.15
2022-12-15T07:07:30.655Z,1003.12
2022-12-15T07:08:34.232Z,1003.20
2022-12-15T07:09:30.639Z,1003.28
2022-12-15T07:10:30.632Z,1003.28
2022-12-15T07:11:30.617Z,1003.34
2022-12-15T07:12:30.613Z,1003.36
2022-12-15T07:13:31.140Z,1003.38
2022-12-15T07:14:30.594Z,1003.38
2022-12-15T07:15:30.579Z,1003.45
2022-12-15T07:16:30.719Z,1003.46
2022-12-15T07:17:30.565Z,1003.46
2022-12-15T07:18:30.554Z,1003.43
2022-12-15T07:19:30.539Z,1003.49
2022-12-15T07:20:30.537Z,1003.48
2022-12-15T07:21:30.532Z,1003.54
2022-12-15T07:22:30.514Z,1003.59
2022-12-15T07:23:53.444Z,1003.61
2022-12-15T07:24:30.494Z,1003.58
2022-12-15T07:25:30.480Z,1003.58
2022-12-15T07:26:30.522Z,1003.56
2022-12-15T07:27:30.472Z,1003.58
2022-12-15T07:28:30.932Z,1003.57
2022-12-15T07:29:30.476Z,1003.64
2022-12-15T07:30:36.792Z,1003.62
2022-12-15T07:31:30.486Z,1003.64
2022-12-15T07:32:30.418Z,1003.60
2022-12-15T07:33:30.883Z,1003.60
2022-12-15T07:34:30.397Z,1003.62
2022-12-15T07:35:30.859Z,1003.67
2022-12-15T07:36:30.374Z,1003.67
2022-12-15T07:37:30.367Z,1003.68
2022-12-15T07:38:30.356Z,1003.71
2022-12-15T07:39:30.344Z,1003.78
2022-12-15T07:40:30.339Z,1003.77
2022-12-15T07:41:30.363Z,1003.76
2022-12-15T07:42:30.316Z,1003.74
2022-12-15T07:43:30.835Z,1003.74
2022-12-15T07:44:30.291Z,1003.76
2022-12-15T07:45:30.346Z,1003.74
2022-12-15T07:46:31.160Z,1003.72
2022-12-15T07:47:30.274Z,1003.72
2022-12-15T07:48:30.261Z,1003.74
2022-12-15T07:49:30.242Z,1003.78
2022-12-15T07:50:30.237Z,1003.82
2022-12-15T07:51:30.224Z,1003.93
2022-12-15T07:52:30.217Z,1003.90
2022-12-15T07:53:30.765Z,1003.91
2022-12-15T07:54:30.203Z,1004.00
2022-12-15T07:55:57.137Z,1004.03
2022-12-15T07:56:33.258Z,1004.03
2022-12-15T07:57:30.166Z,1004.09
2022-12-15T07:58:30.157Z,1004.10
2022-12-15T07:59:30.141Z,1004.07
2022-12-15T08:00:30.142Z,1004.07
2022-12-15T08:01:30.277Z,1004.10
2022-12-15T08:02:30.457Z,1004.09
2022-12-15T08:03:30.842Z,1004.05
2022-12-15T08:04:30.097Z,1004.06
2022-12-15T08:05:30.090Z,1004.08
2022-12-15T08:06:30.094Z,1004.13
2022-12-15T08:07:30.066Z,1004.03
2022-12-15T08:08:30.626Z,1004.10
2022-12-15T08:09:30.054Z,1004.12
2022-12-15T08:10:30.047Z,1004.11
2022-12-15T08:11:30.043Z,1004.12
2022-12-15T08:12:30.034Z,1004.11
2022-12-15T08:14:01.404Z,1004.18
2022-12-15T08:14:30.023Z,1004.23
2022-12-15T08:15:29.989Z,1004.17
2022-12-15T08:16:30.051Z,1004.16
2022-12-15T08:17:30.025Z,1004.21
2022-12-15T08:18:29.967Z,1004.24
2022-12-15T08:19:29.947Z,1004.24
2022-12-15T08:20:29.993Z,1004.31
2022-12-15T08:21:29.935Z,1004.35
2022-12-15T08:22:29.927Z,1004.40
2022-12-15T08:23:30.329Z,1004.43
2022-12-15T08:24:29.904Z,1004.44
2022-12-15T08:25:29.894Z,1004.42
2022-12-15T08:26:31.088Z,1004.41
2022-12-15T08:27:29.872Z,1004.41
2022-12-15T08:28:29.871Z,1004.38
2022-12-15T08:29:50.810Z,1004.44
2022-12-15T08:30:29.847Z,1004.38
2022-12-15T08:31:29.942Z,1004.39
2022-12-15T08:32:29.833Z,1004.43
2022-12-15T08:33:30.239Z,1004.44
2022-12-15T08:34:29.810Z,1004.47
2022-12-15T08:35:55.184Z,1004.49
2022-12-15T08:36:29.792Z,1004.50
2022-12-15T08:37:29.776Z,1004.50
2022-12-15T08:38:29.769Z,1004.54
2022-12-15T08:39:29.757Z,1004.61
2022-12-15T08:40:29.754Z,1004.60
2022-12-15T08:41:29.741Z,1004.58
2022-12-15T08:42:29.730Z,1004.60
2022-12-15T08:43:30.234Z,1004.57
2022-12-15T08:44:29.713Z,1004.61
2022-12-15T08:45:29.738Z,1004.61
2022-12-15T08:46:29.801Z,1004.63
2022-12-15T08:47:29.681Z,1004.60
2022-12-15T08:48:29.677Z,1004.63
2022-12-15T08:49:29.693Z,1004.64
2022-12-15T08:50:29.659Z,1004.64
2022-12-15T08:51:29.650Z,1004.65
2022-12-15T08:52:29.646Z,1004.69
2022-12-15T08:53:31.657Z,1004.68
2022-12-15T08:54:29.623Z,1004.72
2022-12-15T08:55:29.608Z,1004.81
2022-12-15T08:56:29.604Z,1004.75
2022-12-15T08:57:29.586Z,1004.75
2022-12-15T08:58:29.589Z,1004.76
2022-12-15T08:59:29.579Z,1004.74
2022-12-15T09:00:29.571Z,1004.79
2022-12-15T09:01:29.731Z,1004.74
2022-12-15T09:02:29.747Z,1004.74
2022-12-15T09:03:30.002Z,1004.77
2022-12-15T09:04:29.586Z,1004.78
2022-12-15T09:05:29.547Z,1004.77
2022-12-15T09:06:29.511Z,1004.76
2022-12-15T09:07:29.506Z,1004.79
2022-12-15T09:08:29.494Z,1004.76
2022-12-15T09:09:29.485Z,1004.78
2022-12-15T09:10:29.475Z,1004.76
2022-12-15T09:11:29.467Z,1004.77
2022-12-15T09:12:29.465Z,1004.76
2022-12-15T09:13:30.176Z,1004.74
2022-12-15T09:14:29.800Z,1004.73
2022-12-15T09:15:59.728Z,1004.78
2022-12-15T09:16:29.495Z,1004.81
2022-12-15T09:17:29.462Z,1004.83
2022-12-15T09:18:29.407Z,1004.84
2022-12-15T09:19:29.397Z,1004.90
2022-12-15T09:20:29.394Z,1004.97
2022-12-15T09:21:29.395Z,1004.94
2022-12-15T09:22:29.378Z,1005.02
2022-12-15T09:23:29.879Z,1005.05
2022-12-15T09:24:34.952Z,1005.11
2022-12-15T09:25:29.348Z,1005.15
2022-12-15T09:26:29.672Z,1005.20
2022-12-15T09:27:29.329Z,1005.13
2022-12-15T09:28:29.324Z,1005.12
2022-12-15T09:29:29.322Z,1005.14
2022-12-15T09:30:29.425Z,1005.16
2022-12-15T09:31:29.425Z,1005.16
2022-12-15T09:32:29.294Z,1005.07
2022-12-15T09:33:29.586Z,1005.00
2022-12-15T09:34:29.282Z,1005.00
2022-12-15T09:35:29.273Z,1004.99
2022-12-15T09:36:29.264Z,1004.98
2022-12-15T09:37:29.281Z,1004.98
2022-12-15T09:38:29.248Z,1004.98
2022-12-15T09:39:29.240Z,1004.93
2022-12-15T09:40:29.234Z,1004.95
2022-12-15T09:41:29.226Z,1004.87
2022-12-15T09:42:29.219Z,1004.85
2022-12-15T09:43:41.440Z,1004.90
2022-12-15T09:44:29.204Z,1004.84
2022-12-15T09:45:29.197Z,1004.84
2022-12-15T09:46:29.282Z,1004.85
2022-12-15T09:47:29.181Z,1004.82
2022-12-15T09:48:29.180Z,1004.82
2022-12-15T09:49:29.168Z,1004.82
2022-12-15T09:50:29.161Z,1004.86
2022-12-15T09:51:29.153Z,1004.79
2022-12-15T09:52:29.323Z,1004.84
2022-12-15T09:53:54.310Z,1004.85
2022-12-15T09:54:29.272Z,1004.86
2022-12-15T09:55:29.129Z,1004.89
2022-12-15T09:56:29.119Z,1004.89
2022-12-15T09:57:29.116Z,1004.88
2022-12-15T09:58:29.113Z,1004.92
2022-12-15T09:59:29.100Z,1004.92
2022-12-15T10:00:29.092Z,1004.89
2022-12-15T10:01:29.232Z,1004.87
2022-12-15T10:02:29.181Z,1004.88
2022-12-15T10:03:29.694Z,1004.89
2022-12-15T10:04:29.159Z,1004.90
2022-12-15T10:05:50.001Z,1004.96
2022-12-15T10:06:33.130Z,1004.97
2022-12-15T10:07:29.046Z,1004.95
2022-12-15T10:08:29.038Z,1004.98
2022-12-15T10:09:29.054Z,1004.99
2022-12-15T10:10:29.028Z,1005.02
2022-12-15T10:11:29.009Z,1005.01
2022-12-15T10:12:29.018Z,1005.00
2022-12-15T10:13:29.489Z,1005.12
2022-12-15T10:14:29.000Z,1005.14
2022-12-15T10:15:29.060Z,1005.15
2022-12-15T10:16:28.990Z,1005.09
2022-12-15T10:17:28.977Z,1005.12
2022-12-15T10:18:28.969Z,1005.14
2022-12-15T10:19:28.961Z,1005.11
2022-12-15T10:20:28.976Z,1005.12
2022-12-15T10:21:28.948Z,1005.04
2022-12-15T10:22:28.945Z,1005.08
2022-12-15T10:23:29.633Z,1005.08
2022-12-15T10:25:08.080Z,1005.06
2022-12-15T10:25:30.760Z,1005.07
2022-12-15T10:26:28.925Z,1005.05
2022-12-15T10:27:28.909Z,1005.06
2022-12-15T10:28:28.909Z,1005.03
2022-12-15T10:29:28.929Z,1005.00
2022-12-15T10:30:29.137Z,1004.98
2022-12-15T10:31:28.991Z,1004.97
2022-12-15T10:32:28.887Z,1004.97
2022-12-15T10:33:29.251Z,1005.01
2022-12-15T10:34:28.979Z,1004.96
2022-12-15T10:35:28.876Z,1004.96
2022-12-15T10:36:28.852Z,1004.96
2022-12-15T10:37:28.847Z,1004.99
2022-12-15T10:38:28.843Z,1004.97
2022-12-15T10:39:28.830Z,1004.97
2022-12-15T10:40:28.827Z,1004.96
2022-12-15T10:41:28.843Z,1004.93
2022-12-15T10:42:28.815Z,1004.90
2022-12-15T10:43:29.439Z,1004.97
2022-12-15T10:44:32.205Z,1004.97
2022-12-15T10:45:28.790Z,1004.93
2022-12-15T10:46:28.862Z,1004.92
2022-12-15T10:47:28.779Z,1004.94
2022-12-15T10:48:28.775Z,1004.92
2022-12-15T10:49:28.769Z,1004.94
2022-12-15T10:50:28.763Z,1004.95
2022-12-15T10:51:28.756Z,1005.01
2022-12-15T10:52:28.756Z,1004.97
2022-12-15T10:53:29.039Z,1004.96
2022-12-15T10:54:28.746Z,1004.92
2022-12-15T10:55:28.729Z,1004.90
2022-12-15T10:57:28.737Z,1005.03
2022-12-15T10:58:28.713Z,1004.98
2022-12-15T10:59:28.704Z,1004.99
2022-12-15T11:00:28.738Z,1004.98
2022-12-15T11:01:28.837Z,1005.05
2022-12-15T11:02:28.897Z,1005.05
2022-12-15T11:03:29.338Z,1005.06
2022-12-15T11:04:28.781Z,1005.08
2022-12-15T11:05:28.679Z,1005.11
2022-12-15T11:06:28.657Z,1005.12
2022-12-15T11:07:28.649Z,1005.20
2022-12-15T11:08:28.650Z,1005.20
2022-12-15T11:09:28.639Z,1005.25
2022-12-15T11:10:28.635Z,1005.23
2022-12-15T11:11:28.635Z,1005.30
2022-12-15T11:12:28.624Z,1005.25
2022-12-15T11:13:34.806Z,1005.25
2022-12-15T11:14:28.610Z,1005.19
2022-12-15T11:15:28.719Z,1005.21
2022-12-15T11:16:28.600Z,1005.21
2022-12-15T11:17:28.590Z,1005.21
2022-12-15T11:18:28.582Z,1005.19
2022-12-15T11:19:28.575Z,1005.21
2022-12-15T11:20:28.570Z,1005.25
2022-12-15T11:21:28.571Z,1005.23
2022-12-15T11:22:28.563Z,1005.24
2022-12-15T11:23:28.895Z,1005.23
2022-12-15T11:24:28.541Z,1005.26
2022-12-15T11:25:28.535Z,1005.25
2022-12-15T11:26:28.532Z,1005.26
2022-12-15T11:27:28.537Z,1005.26
2022-12-15T11:28:28.518Z,1005.27
2022-12-15T11:29:28.551Z,1005.30
2022-12-15T11:30:28.507Z,1005.28
2022-12-15T11:31:28.505Z,1005.28
2022-12-15T11:32:28.498Z,1005.20
2022-12-15T11:33:29.096Z,1005.19
2022-12-15T11:34:28.484Z,1005.18
2022-12-15T11:35:28.481Z,1005.16
2022-12-15T11:36:28.474Z,1005.16
2022-12-15T11:37:34.258Z,1005.17
2022-12-15T11:38:28.504Z,1005.25
2022-12-15T11:39:28.456Z,1005.23
2022-12-15T11:40:28.450Z,1005.32
2022-12-15T11:41:28.446Z,1005.33
2022-12-15T11:42:28.445Z,1005.34
2022-12-15T11:43:28.906Z,1005.36
2022-12-15T11:44:28.423Z,1005.34
2022-12-15T11:45:28.452Z,1005.34
2022-12-15T11:46:28.413Z,1005.35
2022-12-15T11:47:28.407Z,1005.33
2022-12-15T11:48:28.412Z,1005.35
2022-12-15T11:49:28.399Z,1005.36
2022-12-15T11:50:28.391Z,1005.33
2022-12-15T11:51:28.400Z,1005.32
2022-12-15T11:52:28.376Z,1005.33
2022-12-15T11:53:28.882Z,1005.26
2022-12-15T11:54:28.370Z,1005.20
2022-12-15T11:55:32.229Z,1005.23
2022-12-15T11:56:28.356Z,1005.22
2022-12-15T11:57:28.350Z,1005.21
2022-12-15T11:58:28.954Z,1005.21
2022-12-15T11:59:28.337Z,1005.25
2022-12-15T12:00:28.324Z,1005.24
2022-12-15T12:01:28.412Z,1005.26
2022-12-15T12:02:28.446Z,1005.25
2022-12-15T12:03:28.389Z,1005.27
2022-12-15T12:04:28.307Z,1005.22
2022-12-15T12:05:28.303Z,1005.22
2022-12-15T12:06:28.297Z,1005.24
2022-12-15T12:07:28.300Z,1005.18
2022-12-15T12:08:28.821Z,1005.18
2022-12-15T12:09:28.285Z,1005.14
2022-12-15T12:10:28.271Z,1005.21
2022-12-15T12:11:28.352Z,1005.19
2022-12-15T12:12:28.260Z,1005.15